Disclaimer

Please do not use the information listed here in-flight or in-navigation, as they are not provided to us by the airports but are provided by volunteers, so they might be outdated.

Search


Regions


Airport information page

Radio informations:
KAZANTZAKIS TWR - 120.85 MHz
IRAKLION RADAR - 123.975 MHz
KAZANTZAKIS GND - 121.7 MHz
IRAKLION DIRECTO - 118.025 MHz
IRAKLION APP - 123.975 MHz
KAZANTZAKIS RDO - 5637 MHz

Airport informations:
Latitude: 35° 20' 22.99" N
Longitude: 025° 10' 49.07" E
Elevation: 115 feet - 35 meters
Operating hours: 24 hour operations
Operating agency: Civil government, landing fees and diplomatic clearance may be required
Timezone: UTC+2(+3DT) - Last Sunday in March to last Sunday in October
Fuel: N/A

Runway information:
09/27 - 8800 x 148 feet< - >2682 x 45 meters
12/30 - 5138 x 164 feet< - >1566 x 50 meters
18/36 - 2559 x 131 feet< - >780 x 40 meters

Recent METARs:
LGIR 210250Z 23010KT 9999 FEW025 BKN090 21/16 Q1014 NOSIG
LGIR 210320Z 20010KT 9999 FEW025 BKN090 21/16 Q1014 NOSIG
LGIR 210350Z 21012KT 9999 FEW025 BKN090 21/16 Q1014 NOSIG

Airport on the map: